Main page
METAR-TAF:

METAR-TAF

Airports :

Samsun-Çarşamba Airport

Samsun, Turkey

latitude: 41-15-15N, longitude: 036-34-03E, elevation: 5 m

Current weather observation

The report was made 43 minutes ago, at 02:50 UTC
Wind 9 kt from the Northwest
Temperature 15°C
Humidity 72%
Pressure 1012 hPa
Visibility 10 km or more
Scattered clouds at a height of 3600 ft
Broken clouds at a height of 10000 ft

METAR: LTFH 290250Z 31009KT 9999 SCT036 BKN100 15/10 Q1012 NOSIG

Time: 06:33 (03:33 UTC)

Forecast

The report was made 1 hour and 53 minutes ago, at 01:40 UTC
Forecast valid from 29 at 03 UTC to 29 at 12 UTC
Wind 9 kt from the West/Northwest
Visibility 10 km or more
Scattered clouds at a height of 3600 ft
Broken clouds at a height of 10000 ft

TAF: LTFH 290140Z 2903/2912 30009KT 9999 SCT036 BKN100

Weather observations and forecasts of more than 4000 airports (METAR and TAF reports).

The available stations are represented by yellow and red dots on the map.

Hover mouse over dot to see the name of the station.

Then click to see weather observations and forecasts.

To change the map : click on the green buttons with a black cross to zoom in, on the green button with a dash to zoom out, or on the green arrows for adjacent maps.


METAR-TAF: